• Join FlightAware (Why Join?)
  • Login
  • US Flag 
08:00AM EDT


 

Airport Tracker/Info


-or-


 

Live Flight TrackerFlight Track Log ✈ AAL514 ✈ 10-Jun-2013 ✈ KMIA - KMCO

Flight Track Log - Related Links

Times and Time Zones

All times are in EDT time to prevent confusion due to time zone crossing. See the AAL514 flight status page for this flight to view local times or setup timezone preferences in your user account.

Time Position Orientation Groundspeed Altitude Reporting Facility
EDT Latitude Longitude Course Direction KTS MPH feet Rate Location/Type
01:37PM 25.7981 -80.2744 336° Northwest 158 182 1,100  Level Miami Center
01:38PM 25.8061 -80.2031 83° East 219 252 4,200 2,400 Climbing Miami Center
01:39PM 26.0300 -80.3653 340° North  Level FlightAware Approximate
01:39PM 25.8594 -80.1469 43° Northeast 295 339 6,600  Level Miami Center
01:40PM 26.1127 -80.3931 343° North  Level FlightAware Approximate
01:40PM 25.9297 -80.1903 331° Northwest 293 337 7,000  Level Miami Center
01:41PM 26.1960 -80.4167 North  Level FlightAware Approximate
01:41PM 26.0039 -80.2317 333° Northwest 293 337 8,400  Level Miami Center
01:42PM 26.2766 -80.4466 336° Northwest  Level FlightAware Approximate
01:42PM 26.0572 -80.2750 324° Northwest 322 371 10,800  Level Miami Center
01:43PM 26.1328 -80.3419 322° Northwest 340 391 13,100 2,520 Climbing Miami Center
01:44PM 26.2167 -80.4161 322° Northwest 356 410 15,900 2,760 Climbing Miami Center
01:45PM 26.3136 -80.4700 334° Northwest 381 438 18,700 1,500 Climbing Miami Center
01:46PM 26.4250 -80.5222 337° Northwest 399 459 19,000 120 Climbing Miami Center
01:47PM 26.5178 -80.5667 337° Northwest 392 451 19,000  Level Miami Center
01:48PM 26.6272 -80.6189 337° Northwest 392 451 19,000  Level Miami Center
01:49PM 26.7158 -80.6614 337° Northwest 392 451 19,000  Level Miami Center
01:50PM 26.8275 -80.7117 338° Northwest 392 451 19,000  Level Miami Center
01:51PM 26.9308 -80.7475 343° North 392 451 19,000  Level Miami Center
01:52PM 27.0342 -80.7836 343° North 387 445 19,000 -300 Level Miami Center
01:53PM 27.1375 -80.8292 339° North 382 440 18,500 -600 Descending Miami Center
01:54PM 27.2364 -80.8700 340° North 387 445 17,900 -900 Descending Miami Center
01:55PM 27.3397 -80.9156 339° North 386 444 16,800 -1,080 Descending Miami Center
01:56PM 27.4450 -80.9544 342° North 391 450 15,800 -1,140 Descending Miami Center
01:57PM 27.5461 -80.9956 340° North 386 444 14,600 -1,260 Descending Miami Center
01:58PM 27.6450 -81.0411 338° Northwest 380 437 13,300 -1,320 Descending Miami Center
01:59PM 27.7419 -81.0822 339° North 380 437 12,100 -780 Descending Miami Center
02:01PM 27.9333 -81.1167 351° North 366 421 11,100 -420 Descending Orlando TRACON
02:02PM 28.0333 -81.1500 344° North 367 422 11,000  Descending Orlando TRACON
02:03PM 28.1333 -81.1667 352° North 361 415 11,100  Climbing Orlando TRACON
02:04PM 28.2167 -81.1833 350° North 284 327 11,000 -480 Descending Orlando TRACON
02:05PM 28.3000 -81.1833 360° North 253 291 10,200 -960 Descending Orlando TRACON
02:06PM 28.3667 -81.1833 360° North 253 291 9,100 -840 Descending Orlando TRACON
02:07PM 28.4333 -81.1833 360° North 252 290 8,600 -900 Descending Orlando TRACON
02:08PM 28.5000 -81.1833 360° North 249 287 7,300 -1,260 Descending Orlando TRACON
02:09PM 28.5667 -81.1833 360° North 239 275 6,100 -1,320 Descending Orlando TRACON
02:10PM 28.6333 -81.2000 348° North 238 274 4,700 -1,440 Descending Orlando TRACON